Time,TemperatureF,DewpointF,PressureIn,WindDirection,WindDirectionDegrees,WindSpeedMPH,WindSpeedGustMPH,Humidity,HourlyPrecipIn,Conditions,Clouds,dailyrainin,SolarRadiationWatts/m^2,SoftwareType,DateUTC
2013-12-09 00:02:00,32.0,32.0,29.87,NNW,332,2.0,6.0,100,0.00,,,0.20,0.000000,,2013-12-09 05:02:00,
2013-12-09 00:12:00,32.0,32.0,29.87,NNW,332,2.0,6.0,100,0.00,,,0.20,0.000000,,2013-12-09 05:12:00,
2013-12-09 00:43:00,32.0,32.0,29.85,North,353,2.0,5.0,100,0.00,,,0.20,0.000000,,2013-12-09 05:43:00,
2013-12-09 00:53:00,32.0,32.0,29.85,North,353,2.0,5.0,100,0.00,,,0.20,0.000000,,2013-12-09 05:53:00,
2013-12-09 01:02:00,32.0,32.0,29.85,North,353,2.0,5.0,100,0.00,,,0.20,0.000000,,2013-12-09 06:02:00,
2013-12-09 01:12:00,32.0,32.0,29.85,North,353,2.0,5.0,100,0.00,,,0.20,0.000000,,2013-12-09 06:12:00,
2013-12-09 01:42:00,32.0,32.0,29.80,ENE,58,2.0,6.0,100,0.00,,,0.20,0.000000,,2013-12-09 06:42:00,
2013-12-09 01:52:00,32.0,32.0,29.80,ENE,58,2.0,6.0,100,0.00,,,0.20,0.000000,,2013-12-09 06:52:00,
2013-12-09 02:03:00,32.0,32.0,29.80,ENE,58,2.0,6.0,100,0.00,,,0.20,0.000000,,2013-12-09 07:03:00,
2013-12-09 02:11:00,32.0,32.0,29.80,ENE,58,2.0,6.0,100,0.00,,,0.20,0.000000,,2013-12-09 07:11:00,
2013-12-09 02:42:00,34.0,34.0,29.79,North,1,1.0,4.0,100,0.00,,,0.20,0.000000,,2013-12-09 07:42:00,
2013-12-09 02:52:00,34.0,34.0,29.79,North,1,1.0,4.0,100,0.00,,,0.20,0.000000,,2013-12-09 07:52:00,
2013-12-09 03:02:00,34.0,34.0,29.79,North,1,1.0,4.0,100,0.00,,,0.20,0.000000,,2013-12-09 08:02:00,
2013-12-09 03:12:00,34.0,34.0,29.79,North,1,1.0,4.0,100,0.00,,,0.20,0.000000,,2013-12-09 08:12:00,
2013-12-09 03:43:00,34.0,34.0,29.80,NW,317,2.0,6.0,100,0.01,,,0.21,0.000000,,2013-12-09 08:43:00,
2013-12-09 03:52:00,34.0,34.0,29.80,NW,317,2.0,6.0,100,0.01,,,0.21,0.000000,,2013-12-09 08:52:00,
2013-12-09 04:02:00,34.0,34.0,29.80,NW,317,2.0,6.0,100,0.01,,,0.21,0.000000,,2013-12-09 09:02:00,
2013-12-09 04:12:00,34.0,34.0,29.80,NW,317,2.0,6.0,100,0.01,,,0.21,0.000000,,2013-12-09 09:12:00,
2013-12-09 04:43:00,34.0,34.0,29.77,SW,217,2.0,5.0,100,0.00,,,0.21,0.000000,,2013-12-09 09:43:00,
2013-12-09 04:54:00,34.0,34.0,29.77,SW,217,2.0,5.0,100,0.00,,,0.21,0.000000,,2013-12-09 09:54:00,
2013-12-09 05:04:00,34.0,34.0,29.77,SW,217,2.0,5.0,100,0.00,,,0.21,0.000000,,2013-12-09 10:04:00,
2013-12-09 05:13:00,34.0,34.0,29.77,SW,217,2.0,5.0,100,0.00,,,0.21,0.000000,,2013-12-09 10:13:00,
2013-12-09 05:43:00,33.0,33.0,29.73,South,184,2.0,10.0,100,0.00,,,0.21,0.000000,,2013-12-09 10:43:00,
2013-12-09 05:53:00,33.0,33.0,29.73,South,184,2.0,10.0,100,0.00,,,0.21,0.000000,,2013-12-09 10:53:00,
2013-12-09 06:02:00,33.0,33.0,29.73,South,184,2.0,10.0,100,0.00,,,0.21,0.000000,,2013-12-09 11:02:00,
2013-12-09 06:12:00,33.0,33.0,29.73,South,184,2.0,10.0,100,0.00,,,0.21,0.000000,,2013-12-09 11:12:00,
2013-12-09 06:43:00,33.0,33.0,29.78,WNW,294,4.0,10.0,100,0.00,,,0.21,0.000000,,2013-12-09 11:43:00,
2013-12-09 06:53:00,33.0,33.0,29.78,WNW,294,4.0,10.0,100,0.00,,,0.21,0.000000,,2013-12-09 11:53:00,
2013-12-09 07:02:00,33.0,33.0,29.78,WNW,294,4.0,10.0,100,0.00,,,0.21,0.000000,,2013-12-09 12:02:00,
2013-12-09 07:12:00,33.0,33.0,29.78,WNW,294,4.0,10.0,100,0.00,,,0.21,0.000000,,2013-12-09 12:12:00,
2013-12-09 07:42:00,35.0,35.0,29.74,SSW,192,3.0,7.0,100,0.00,,,0.21,0.000000,,2013-12-09 12:42:00,
2013-12-09 07:52:00,35.0,35.0,29.74,SSW,192,3.0,7.0,100,0.00,,,0.21,0.000000,,2013-12-09 12:52:00,
2013-12-09 08:02:00,35.0,35.0,29.74,SSW,192,3.0,7.0,100,0.00,,,0.21,0.000000,,2013-12-09 13:02:00,
2013-12-09 08:12:00,35.0,35.0,29.74,SSW,192,3.0,7.0,100,0.00,,,0.21,0.000000,,2013-12-09 13:12:00,
2013-12-09 08:42:00,34.0,34.0,29.73,South,191,2.0,8.0,100,0.00,,,0.21,12.000000,,2013-12-09 13:42:00,
2013-12-09 08:52:00,34.0,34.0,29.73,South,191,2.0,8.0,100,0.00,,,0.21,12.000000,,2013-12-09 13:52:00,
2013-12-09 09:02:00,34.0,34.0,29.73,South,191,2.0,8.0,100,0.00,,,0.21,12.000000,,2013-12-09 14:02:00,
2013-12-09 09:12:00,34.0,34.0,29.73,South,191,2.0,8.0,100,0.00,,,0.21,12.000000,,2013-12-09 14:12:00,
2013-12-09 09:42:00,35.0,35.0,29.74,West,266,2.0,5.0,100,0.01,,,0.21,22.000000,,2013-12-09 14:42:00,
2013-12-09 09:52:00,35.0,35.0,29.74,West,266,2.0,5.0,100,0.01,,,0.21,22.000000,,2013-12-09 14:52:00,
2013-12-09 10:02:00,35.0,35.0,29.74,West,266,2.0,5.0,100,0.01,,,0.21,22.000000,,2013-12-09 15:02:00,
2013-12-09 10:12:00,35.0,35.0,29.74,West,266,2.0,5.0,100,0.01,,,0.21,22.000000,,2013-12-09 15:12:00,
2013-12-09 10:44:00,37.0,37.0,29.75,SW,230,3.0,9.0,100,0.00,,,0.14,37.000000,,2013-12-09 15:44:00,
2013-12-09 10:53:00,37.0,37.0,29.75,SW,230,3.0,9.0,100,0.00,,,0.14,37.000000,,2013-12-09 15:53:00,
2013-12-09 11:03:00,37.0,37.0,29.75,SW,230,3.0,9.0,100,0.00,,,0.14,37.000000,,2013-12-09 16:03:00,
2013-12-09 11:13:00,37.0,37.0,29.75,SW,230,3.0,9.0,100,0.00,,,0.14,37.000000,,2013-12-09 16:13:00,
2013-12-09 11:43:00,37.0,37.0,29.72,South,188,3.0,6.0,100,0.02,,,0.16,63.000000,,2013-12-09 16:43:00,
2013-12-09 11:53:00,37.0,37.0,29.72,South,188,3.0,6.0,100,0.02,,,0.16,63.000000,,2013-12-09 16:53:00,
2013-12-09 12:02:00,37.0,37.0,29.72,South,188,3.0,6.0,100,0.02,,,0.16,63.000000,,2013-12-09 17:02:00,
2013-12-09 12:12:00,37.0,37.0,29.72,South,188,3.0,6.0,100,0.02,,,0.16,63.000000,,2013-12-09 17:12:00,
2013-12-09 12:42:00,40.0,40.0,29.71,WSW,249,3.0,7.0,100,0.01,,,0.16,82.000000,,2013-12-09 17:42:00,
2013-12-09 12:53:00,40.0,40.0,29.71,WSW,249,3.0,7.0,100,0.01,,,0.16,82.000000,,2013-12-09 17:53:00,
2013-12-09 13:02:00,40.0,40.0,29.71,WSW,249,3.0,7.0,100,0.01,,,0.16,82.000000,,2013-12-09 18:02:00,
2013-12-09 13:12:00,40.0,40.0,29.71,WSW,249,3.0,7.0,100,0.01,,,0.16,82.000000,,2013-12-09 18:12:00,
2013-12-09 13:43:00,41.0,41.0,29.68,SW,234,4.0,11.0,100,0.02,,,0.16,67.000000,,2013-12-09 18:43:00,
2013-12-09 13:53:00,41.0,41.0,29.68,SW,234,4.0,11.0,100,0.02,,,0.16,67.000000,,2013-12-09 18:53:00,
2013-12-09 14:03:00,41.0,41.0,29.68,SW,234,4.0,11.0,100,0.02,,,0.16,67.000000,,2013-12-09 19:03:00,
2013-12-09 14:12:00,41.0,41.0,29.68,SW,234,4.0,11.0,100,0.02,,,0.16,67.000000,,2013-12-09 19:12:00,
2013-12-09 14:43:00,40.0,40.0,29.66,SW,224,4.0,8.0,100,0.02,,,0.13,45.000000,,2013-12-09 19:43:00,
2013-12-09 14:53:00,40.0,40.0,29.66,SW,224,4.0,8.0,100,0.02,,,0.13,45.000000,,2013-12-09 19:53:00,
2013-12-09 15:02:00,40.0,40.0,29.66,SW,224,4.0,8.0,100,0.02,,,0.13,45.000000,,2013-12-09 20:02:00,
2013-12-09 15:11:00,40.0,40.0,29.66,SW,224,4.0,8.0,100,0.02,,,0.13,45.000000,,2013-12-09 20:11:00,
2013-12-09 15:42:00,41.0,41.0,29.66,WSW,238,2.0,7.0,100,0.01,,,0.11,37.000000,,2013-12-09 20:42:00,
2013-12-09 15:53:00,41.0,41.0,29.66,WSW,238,2.0,7.0,100,0.01,,,0.11,37.000000,,2013-12-09 20:53:00,
2013-12-09 16:02:00,41.0,41.0,29.66,WSW,238,2.0,7.0,100,0.01,,,0.11,37.000000,,2013-12-09 21:02:00,
2013-12-09 16:12:00,41.0,41.0,29.66,WSW,238,2.0,7.0,100,0.01,,,0.11,37.000000,,2013-12-09 21:12:00,
2013-12-09 16:44:00,43.0,43.0,29.67,SW,227,4.0,8.0,100,0.02,,,0.13,19.000000,,2013-12-09 21:44:00,
2013-12-09 16:53:00,43.0,43.0,29.67,SW,227,4.0,8.0,100,0.02,,,0.13,19.000000,,2013-12-09 21:53:00,
2013-12-09 17:03:00,43.0,43.0,29.67,SW,227,4.0,8.0,100,0.02,,,0.13,19.000000,,2013-12-09 22:03:00,
2013-12-09 17:13:00,43.0,43.0,29.67,SW,227,4.0,8.0,100,0.02,,,0.13,19.000000,,2013-12-09 22:13:00,
2013-12-09 17:53:00,43.0,43.0,29.66,SSW,211,3.0,4.0,100,0.06,,,0.19,2.000000,,2013-12-09 22:53:00,
2013-12-09 18:02:00,43.0,43.0,29.66,SSW,211,3.0,4.0,100,0.06,,,0.19,2.000000,,2013-12-09 23:02:00,
2013-12-09 18:12:00,43.0,43.0,29.66,SSW,211,3.0,4.0,100,0.06,,,0.19,2.000000,,2013-12-09 23:12:00,
2013-12-09 18:43:00,42.0,42.0,29.68,WSW,240,2.0,6.0,100,0.05,,,0.23,0.000000,,2013-12-09 23:43:00,
2013-12-09 18:53:00,42.0,42.0,29.68,WSW,240,2.0,6.0,100,0.05,,,0.23,0.000000,,2013-12-09 23:53:00,
2013-12-09 19:02:00,42.0,42.0,29.68,WSW,240,2.0,6.0,100,0.05,,,0.23,0.000000,,2013-12-10 00:02:00,
2013-12-09 19:12:00,42.0,42.0,29.68,WSW,240,2.0,6.0,100,0.05,,,0.23,0.000000,,2013-12-10 00:12:00,
2013-12-09 19:42:00,42.0,42.0,29.67,SW,217,4.0,7.0,100,0.06,,,0.29,0.000000,,2013-12-10 00:42:00,
2013-12-09 19:53:00,42.0,42.0,29.67,SW,217,4.0,7.0,100,0.06,,,0.29,0.000000,,2013-12-10 00:53:00,
2013-12-09 20:02:00,42.0,42.0,29.67,SW,217,4.0,7.0,100,0.06,,,0.29,0.000000,,2013-12-10 01:02:00,
2013-12-09 20:11:00,42.0,42.0,29.67,SW,217,4.0,7.0,100,0.06,,,0.29,0.000000,,2013-12-10 01:11:00,
2013-12-09 20:42:00,44.0,44.0,29.68,SW,225,2.0,7.0,100,0.00,,,0.29,0.000000,,2013-12-10 01:42:00,
2013-12-09 20:52:00,44.0,44.0,29.68,SW,225,2.0,7.0,100,0.00,,,0.29,0.000000,,2013-12-10 01:52:00,
2013-12-09 21:02:00,44.0,44.0,29.68,SW,225,2.0,7.0,100,0.00,,,0.29,0.000000,,2013-12-10 02:02:00,
2013-12-09 21:12:00,44.0,44.0,29.68,SW,225,2.0,7.0,100,0.00,,,0.29,0.000000,,2013-12-10 02:12:00,
2013-12-09 21:42:00,44.0,44.0,29.67,NNW,344,2.0,4.0,100,0.00,,,0.29,0.000000,,2013-12-10 02:42:00,
2013-12-09 21:52:00,44.0,44.0,29.67,NNW,344,2.0,4.0,100,0.00,,,0.29,0.000000,,2013-12-10 02:52:00,
2013-12-09 22:02:00,44.0,44.0,29.67,NNW,344,2.0,4.0,100,0.00,,,0.29,0.000000,,2013-12-10 03:02:00,
2013-12-09 22:11:00,44.0,44.0,29.67,NNW,344,2.0,4.0,100,0.00,,,0.29,0.000000,,2013-12-10 03:11:00,
2013-12-09 22:43:00,43.0,43.0,29.67,SSW,204,2.0,3.0,100,0.00,,,0.29,0.000000,,2013-12-10 03:43:00,
2013-12-09 22:54:00,43.0,43.0,29.67,SSW,204,2.0,3.0,100,0.00,,,0.29,0.000000,,2013-12-10 03:54:00,
2013-12-09 23:03:00,43.0,43.0,29.67,SSW,204,2.0,3.0,100,0.00,,,0.29,0.000000,,2013-12-10 04:03:00,
2013-12-09 23:13:00,43.0,43.0,29.67,SSW,204,2.0,3.0,100,0.00,,,0.29,0.000000,,2013-12-10 04:13:00,
2013-12-09 23:43:00,44.0,44.0,29.65,SW,225,1.0,4.0,100,0.00,,,0.29,0.000000,,2013-12-10 04:43:00,
2013-12-09 23:53:00,44.0,44.0,29.65,SW,225,1.0,4.0,100,0.00,,,0.29,0.000000,,2013-12-10 04:53:00,